weather.gov     
National Weather Service

Terminal Aerodrome Forecast
NWS Homepage
This page is being discontinued on March 12, 2014.
The same data is available at this site. Please update your bookmarks.
Thank you, and we apologize for the inconvenience.
Please send an email to SR-SRH.Webmaster@noaa.gov with any concerns.


Current Version
Previous Version:    01  02  03  04  05  06  07  08  09  10  11  12  13  14  15  16  17  18  19  
[Printable]
309
FTUS45 KGJT 312333
TAFGJT
TAF
KGJT 312333Z 0100/0124 27005KT P6SM SCT180 BKN250
     FM010200 08005KT P6SM SCT150 BKN250
     FM010500 12012KT P6SM SCT100 BKN150
     FM011700 16016G24KT P6SM SCT100 BKN150=


309
FTUS45 KGJT 312333
TAFGJT
TAF
KGJT 312333Z 0100/0124 27005KT P6SM SCT180 BKN250
     FM010200 08005KT P6SM SCT150 BKN250
     FM010500 12012KT P6SM SCT100 BKN150
     FM011700 16016G24KT P6SM SCT100 BKN150=




U.S. Dept. of Commerce
NOAA National Weather Service
1325 East West Highway
Silver Spring, MD 20910
E-mail: w-nws.webmaster@noaa.gov
Page last modified: May 16, 2007
NATIONAL WEATHER SERVICE: for Safety, for Work, for Fun - FOR LIFE